createdAt,value
2023-10-12T00:01:02.570Z,3.80
2023-10-12T00:04:10.038Z,4.15
2023-10-12T00:07:16.649Z,3.25
2023-10-12T00:10:19.343Z,4.72
2023-10-12T00:13:23.962Z,4.35
2023-10-12T00:16:26.934Z,3.55
2023-10-12T00:19:30.098Z,3.60
2023-10-12T00:22:32.767Z,3.83
2023-10-12T00:25:36.100Z,3.60
2023-10-12T00:28:41.555Z,5.28
2023-10-12T00:31:44.885Z,3.60
2023-10-12T00:34:50.178Z,3.13
2023-10-12T00:37:55.676Z,3.25
2023-10-12T00:40:59.454Z,4.32
2023-10-12T00:44:08.195Z,2.85
2023-10-12T00:47:31.317Z,3.15
2023-10-12T00:50:35.418Z,3.58
2023-10-12T00:53:38.637Z,4.07
2023-10-12T00:56:45.128Z,3.95
2023-10-12T00:59:48.532Z,3.95
2023-10-12T01:03:08.710Z,4.07
2023-10-12T01:06:12.688Z,4.93
2023-10-12T01:09:22.017Z,5.30
2023-10-12T01:12:31.959Z,5.18
2023-10-12T01:15:35.276Z,4.82
2023-10-12T01:18:40.106Z,5.82
2023-10-12T01:21:45.421Z,4.90
2023-10-12T01:24:54.759Z,4.30
2023-10-12T01:27:58.125Z,5.30
2023-10-12T01:31:03.110Z,3.42
2023-10-12T01:34:06.472Z,3.75
2023-10-12T01:37:27.180Z,4.07
2023-10-12T01:40:51.057Z,4.55
2023-10-12T01:43:55.226Z,4.47
2023-10-12T01:46:58.610Z,5.05
2023-10-12T01:50:02.954Z,5.38
2023-10-12T01:53:27.318Z,4.40
2023-10-12T01:56:31.228Z,3.38
2023-10-12T01:59:35.657Z,3.70
2023-10-12T02:02:42.290Z,3.65
2023-10-12T02:05:52.594Z,4.88
2023-10-12T02:08:56.084Z,4.82
2023-10-12T02:12:11.116Z,3.13
2023-10-12T02:15:17.179Z,3.40
2023-10-12T02:18:21.205Z,4.88
2023-10-12T02:21:26.390Z,4.03
2023-10-12T02:24:29.352Z,4.45
2023-10-12T02:27:33.413Z,4.68
2023-10-12T02:30:36.671Z,4.95
2023-10-12T02:33:39.885Z,4.05
2023-10-12T02:36:42.736Z,4.15
2023-10-12T02:39:48.690Z,4.10
2023-10-12T02:42:53.355Z,4.15
2023-10-12T02:46:03.091Z,4.25
2023-10-12T02:49:07.920Z,4.53
2023-10-12T02:52:11.724Z,4.07
2023-10-12T02:55:23.392Z,4.60
2023-10-12T02:58:28.047Z,4.80
2023-10-12T03:01:31.296Z,3.72
2023-10-12T03:04:40.612Z,3.83
2023-10-12T03:07:43.392Z,3.70
2023-10-12T03:11:01.622Z,4.00
2023-10-12T03:14:28.343Z,3.58
2023-10-12T03:17:31.232Z,3.42
2023-10-12T03:20:36.966Z,3.15
2023-10-12T03:23:48.228Z,4.15
2023-10-12T03:27:03.520Z,4.85
2023-10-12T03:30:11.600Z,5.03
2023-10-12T03:33:16.820Z,5.10
2023-10-12T03:36:24.601Z,5.13
2023-10-12T03:39:32.305Z,4.57
2023-10-12T03:42:35.010Z,4.68
2023-10-12T03:46:00.896Z,4.60
2023-10-12T03:49:19.883Z,5.00
2023-10-12T03:52:30.210Z,5.45
2023-10-12T03:55:34.980Z,5.70
2023-10-12T03:58:41.517Z,5.45
2023-10-12T04:01:45.214Z,5.47
2023-10-12T04:05:10.941Z,4.97
2023-10-12T04:08:20.901Z,5.68
2023-10-12T04:11:50.166Z,4.93
2023-10-12T04:14:54.668Z,5.28
2023-10-12T04:18:01.212Z,5.00
2023-10-12T04:21:05.074Z,4.72
2023-10-12T04:24:17.793Z,4.63
2023-10-12T04:27:40.271Z,5.07
2023-10-12T04:30:58.592Z,5.05
2023-10-12T04:34:05.978Z,4.45
2023-10-12T04:37:11.236Z,4.30
2023-10-12T04:40:32.816Z,5.57
2023-10-12T04:43:37.104Z,4.80
2023-10-12T04:46:49.655Z,6.68
2023-10-12T04:49:52.458Z,6.03
2023-10-12T04:53:10.646Z,5.00
2023-10-12T04:56:13.439Z,5.43
2023-10-12T04:59:17.542Z,6.57
2023-10-12T05:02:32.789Z,7.13
2023-10-12T05:06:09.750Z,5.70
2023-10-12T05:09:12.732Z,5.28
2023-10-12T05:12:15.586Z,4.68
2023-10-12T05:15:22.017Z,6.30
2023-10-12T05:18:26.077Z,5.05
2023-10-12T05:21:28.863Z,5.88
2023-10-12T05:24:34.006Z,5.32
2023-10-12T05:28:02.666Z,4.55
2023-10-12T05:31:05.643Z,7.63
2023-10-12T05:34:34.196Z,5.47
2023-10-12T05:37:39.813Z,6.05
2023-10-12T05:40:45.640Z,7.53
2023-10-12T05:43:48.604Z,7.35
2023-10-12T05:46:53.835Z,7.40
2023-10-12T05:49:58.821Z,5.68
2023-10-12T05:53:01.541Z,6.55
2023-10-12T05:56:05.791Z,10.43
2023-10-12T05:59:13.925Z,9.25
2023-10-12T06:49:45.547Z,10.35
2023-10-12T06:52:48.357Z,9.43
2023-10-12T06:55:58.941Z,9.05
2023-10-12T06:59:20.369Z,9.10
2023-10-12T07:02:29.172Z,9.15
2023-10-12T07:05:39.358Z,8.25
2023-10-12T07:08:44.242Z,9.40
2023-10-12T07:11:47.485Z,8.48
2023-10-12T07:14:56.873Z,8.90
2023-10-12T07:18:07.184Z,8.68
2023-10-12T07:21:21.792Z,7.68
2023-10-12T07:24:24.885Z,8.27
2023-10-12T07:27:29.222Z,9.50
2023-10-12T07:30:32.378Z,9.32
2023-10-12T07:33:36.202Z,9.43
2023-10-12T07:36:39.640Z,10.25
2023-10-12T07:39:44.541Z,9.50
2023-10-12T07:42:50.625Z,10.93
2023-10-12T07:45:53.875Z,9.73
2023-10-12T07:49:12.134Z,10.30
2023-10-12T07:52:20.849Z,9.73
2023-10-12T07:55:23.834Z,8.45
2023-10-12T07:58:30.952Z,8.85
2023-10-12T08:01:33.893Z,7.65
2023-10-12T08:04:40.674Z,8.75
2023-10-12T08:08:02.250Z,9.80
2023-10-12T08:11:14.380Z,10.98
2023-10-12T08:14:25.986Z,11.52
2023-10-12T08:17:35.205Z,9.85
2023-10-12T08:20:55.065Z,9.55
2023-10-12T08:24:11.719Z,9.30
2023-10-12T08:27:14.700Z,8.13
2023-10-12T08:30:25.359Z,7.25
2023-10-12T08:33:46.578Z,9.57
2023-10-12T08:37:09.435Z,9.60
2023-10-12T08:40:21.522Z,9.43
2023-10-12T08:43:43.990Z,9.05
2023-10-12T08:46:58.218Z,9.15
2023-10-12T08:50:06.539Z,8.68
2023-10-12T08:53:10.455Z,9.48
2023-10-12T08:56:14.751Z,9.77
2023-10-12T08:59:17.454Z,10.13
2023-10-12T09:02:20.612Z,9.82
2023-10-12T09:05:32.544Z,9.32
2023-10-12T09:08:35.909Z,9.93
2023-10-12T09:11:45.214Z,9.40
2023-10-12T09:14:47.920Z,9.35
2023-10-12T09:17:50.999Z,9.65
2023-10-12T09:21:00.331Z,9.38
2023-10-12T09:24:23.313Z,10.35
2023-10-12T09:27:37.730Z,10.27
2023-10-12T09:30:46.530Z,9.95
2023-10-12T09:33:56.309Z,8.63
2023-10-12T09:37:03.765Z,9.48
2023-10-12T09:40:25.595Z,9.95
2023-10-12T09:43:31.963Z,9.10
2023-10-12T09:46:36.102Z,8.00
2023-10-12T09:49:56.870Z,9.57
2023-10-12T09:53:10.865Z,9.63
2023-10-12T09:56:26.440Z,8.82
2023-10-12T09:59:48.973Z,9.07
2023-10-12T10:03:07.203Z,9.43
2023-10-12T10:10:32.617Z,8.75
2023-10-12T10:13:59.161Z,9.13
2023-10-12T10:17:29.807Z,9.52
2023-10-12T10:21:08.085Z,9.18
2023-10-12T10:24:23.435Z,8.63
2023-10-12T10:27:37.065Z,8.70
2023-10-12T10:30:51.011Z,8.77
2023-10-12T10:34:03.886Z,8.73
2023-10-12T10:37:13.330Z,9.02
2023-10-12T10:40:41.548Z,7.47
2023-10-12T10:43:55.786Z,8.70
2023-10-12T10:47:33.627Z,9.82
2023-10-12T10:50:46.551Z,7.35
2023-10-12T10:54:00.771Z,8.60
2023-10-12T10:57:27.999Z,8.57
2023-10-12T11:00:52.357Z,7.38
2023-10-12T11:04:21.000Z,8.30
2023-10-12T11:07:33.659Z,9.60
2023-10-12T11:10:59.317Z,8.57
2023-10-12T11:17:58.322Z,7.07
2023-10-12T11:21:04.925Z,8.63
2023-10-12T11:24:11.060Z,7.28
2023-10-12T11:27:33.161Z,8.52
2023-10-12T11:30:42.302Z,6.65
2023-10-12T11:33:54.536Z,8.27
2023-10-12T11:37:05.641Z,8.30
2023-10-12T11:40:09.381Z,6.72
2023-10-12T11:43:17.054Z,8.10
2023-10-12T11:46:19.992Z,7.32
2023-10-12T11:49:23.272Z,7.63
2023-10-12T11:52:34.766Z,8.20
2023-10-12T11:55:41.834Z,6.75
2023-10-12T11:58:57.205Z,7.88
2023-10-12T12:02:18.084Z,7.75
2023-10-12T12:05:25.466Z,7.85
2023-10-12T12:08:28.572Z,6.78
2023-10-12T12:11:39.173Z,7.53
2023-10-12T12:14:48.466Z,7.35
2023-10-12T12:17:56.934Z,5.75
2023-10-12T12:21:00.033Z,7.13
2023-10-12T12:24:22.848Z,8.43
2023-10-12T12:27:41.196Z,7.93
2023-10-12T12:33:56.608Z,7.20
2023-10-12T12:37:00.136Z,6.63
2023-10-12T12:40:41.834Z,7.00
2023-10-12T12:43:50.133Z,6.38
2023-10-12T12:46:53.379Z,6.97
2023-10-12T12:50:05.936Z,5.93
2023-10-12T12:53:22.995Z,6.07
2023-10-12T12:56:26.673Z,7.70
2023-10-12T12:59:29.786Z,6.97
2023-10-12T13:02:35.013Z,7.32
2023-10-12T13:05:38.306Z,6.70
2023-10-12T13:08:41.768Z,6.43
2023-10-12T13:11:44.501Z,6.68
2023-10-12T13:14:49.926Z,6.78
2023-10-12T13:17:54.066Z,6.03
2023-10-12T13:20:58.772Z,6.97
2023-10-12T13:24:07.713Z,6.70
2023-10-12T13:27:17.762Z,6.22
2023-10-12T13:30:22.456Z,7.43
2023-10-12T13:33:32.660Z,6.35
2023-10-12T13:36:35.565Z,6.97
2023-10-12T13:39:38.267Z,6.28
2023-10-12T13:42:42.117Z,7.93
2023-10-12T13:45:50.075Z,5.53
2023-10-12T13:48:55.914Z,6.00
2023-10-12T13:51:58.674Z,5.28
2023-10-12T13:55:14.056Z,5.70
2023-10-12T13:58:17.616Z,5.70
2023-10-12T14:01:25.317Z,5.95
2023-10-12T14:04:32.649Z,5.75
2023-10-12T14:07:38.705Z,6.65
2023-10-12T14:10:42.760Z,5.85
2023-10-12T14:13:46.529Z,6.38
2023-10-12T14:16:53.397Z,5.47
2023-10-12T14:20:01.198Z,6.07
2023-10-12T14:23:15.056Z,5.95
2023-10-12T14:26:28.161Z,5.45
2023-10-12T14:29:32.966Z,5.20
2023-10-12T14:32:35.955Z,5.65
2023-10-12T14:35:46.234Z,6.35
2023-10-12T14:38:49.378Z,6.00
2023-10-12T14:41:54.449Z,4.72
2023-10-12T14:44:58.083Z,8.63
2023-10-12T14:48:01.753Z,6.13
2023-10-12T14:51:14.608Z,5.63
2023-10-12T14:54:17.672Z,4.65
2023-10-12T14:57:23.257Z,15.45
2023-10-12T15:00:26.006Z,7.45
2023-10-12T15:03:39.337Z,6.53
2023-10-12T15:06:44.776Z,5.35
2023-10-12T15:09:53.984Z,5.60
2023-10-12T15:12:57.708Z,5.68
2023-10-12T15:16:25.760Z,6.28
2023-10-12T15:19:34.453Z,5.05
2023-10-12T15:22:43.572Z,5.85
2023-10-12T15:25:46.506Z,5.40
2023-10-12T15:28:53.187Z,5.20
2023-10-12T15:31:56.156Z,40.38
2023-10-12T15:35:00.306Z,21.60
2023-10-12T15:38:03.839Z,10.15
2023-10-12T15:41:10.292Z,7.20
2023-10-12T15:44:19.260Z,5.80
2023-10-12T15:47:22.291Z,6.25
2023-10-12T15:50:28.499Z,5.65
2023-10-12T15:53:31.801Z,5.43
2023-10-12T15:56:38.107Z,5.68
2023-10-12T15:59:48.000Z,6.68
2023-10-12T16:03:02.930Z,16.08
2023-10-12T16:06:05.915Z,8.73
2023-10-12T16:09:25.827Z,12.05
2023-10-12T16:12:39.041Z,6.25
2023-10-12T16:15:42.078Z,5.55
2023-10-12T16:18:56.821Z,5.55
2023-10-12T16:22:02.631Z,4.63
2023-10-12T16:25:10.452Z,5.07
2023-10-12T16:28:24.376Z,5.82
2023-10-12T16:31:38.309Z,6.10
2023-10-12T16:34:44.818Z,6.05
2023-10-12T16:37:55.476Z,5.90
2023-10-12T16:40:58.978Z,5.57
2023-10-12T16:44:06.469Z,4.43
2023-10-12T16:47:09.454Z,5.60
2023-10-12T16:50:13.140Z,5.55
2023-10-12T16:53:24.362Z,5.32
2023-10-12T16:56:28.339Z,6.30
2023-10-12T16:59:38.594Z,5.53
2023-10-12T17:02:47.416Z,4.53
2023-10-12T17:06:01.655Z,5.03
2023-10-12T17:09:15.284Z,4.88
2023-10-12T17:12:21.646Z,5.15
2023-10-12T17:15:25.049Z,4.72
2023-10-12T17:18:33.120Z,5.63
2023-10-12T17:21:40.398Z,5.07
2023-10-12T17:24:45.151Z,5.22
2023-10-12T17:28:03.942Z,5.25
2023-10-12T17:31:17.407Z,5.40
2023-10-12T17:34:27.905Z,5.40
2023-10-12T17:37:30.990Z,5.28
2023-10-12T17:40:41.561Z,4.60
2023-10-12T17:43:53.646Z,4.53
2023-10-12T17:47:01.119Z,5.00
2023-10-12T17:50:14.731Z,4.78
2023-10-12T17:53:27.112Z,5.40
2023-10-12T17:56:34.589Z,5.57
2023-10-12T17:59:49.430Z,5.32
2023-10-12T18:02:54.573Z,4.70
2023-10-12T18:06:04.324Z,4.60
2023-10-12T18:09:08.490Z,5.93
2023-10-12T18:12:12.653Z,5.38
2023-10-12T18:15:37.405Z,6.38
2023-10-12T18:18:44.349Z,5.60
2023-10-12T18:21:47.978Z,5.45
2023-10-12T18:24:53.972Z,4.68
2023-10-12T18:28:01.205Z,5.43
2023-10-12T18:31:08.122Z,4.85
2023-10-12T18:34:12.317Z,4.78
2023-10-12T18:37:15.381Z,5.63
2023-10-12T18:40:21.259Z,5.35
2023-10-12T18:43:24.526Z,4.63
2023-10-12T18:46:35.670Z,4.05
2023-10-12T18:49:52.631Z,5.25
2023-10-12T18:53:11.260Z,4.30
2023-10-12T18:56:17.809Z,5.55
2023-10-12T18:59:23.646Z,4.65
2023-10-12T19:02:30.578Z,4.43
2023-10-12T19:05:39.947Z,4.40
2023-10-12T19:08:45.519Z,4.25
2023-10-12T19:11:52.664Z,5.15
2023-10-12T19:15:06.865Z,5.47
2023-10-12T19:18:17.743Z,4.53
2023-10-12T19:21:24.017Z,5.53
2023-10-12T19:24:26.917Z,4.38
2023-10-12T19:27:36.091Z,5.25
2023-10-12T19:30:44.069Z,5.45
2023-10-12T19:33:49.153Z,5.85
2023-10-12T19:36:53.919Z,5.20
2023-10-12T19:40:00.696Z,4.88
2023-10-12T19:43:06.170Z,5.57
2023-10-12T19:46:13.112Z,4.18
2023-10-12T19:49:23.591Z,5.30
2023-10-12T19:52:42.174Z,4.95
2023-10-12T19:55:47.804Z,4.80
2023-10-12T19:59:02.429Z,4.75
2023-10-12T20:02:21.016Z,4.65
2023-10-12T20:05:26.372Z,5.43
2023-10-12T20:08:29.342Z,4.55
2023-10-12T20:11:49.374Z,5.32
2023-10-12T20:15:07.944Z,5.00
2023-10-12T20:18:15.384Z,4.97
2023-10-12T20:21:22.724Z,5.20
2023-10-12T20:24:25.572Z,4.70
2023-10-12T20:27:35.658Z,4.72
2023-10-12T20:30:45.378Z,5.65
2023-10-12T20:33:49.727Z,5.15
2023-10-12T20:37:00.170Z,4.82
2023-10-12T20:40:03.102Z,4.82
2023-10-12T20:43:10.455Z,4.85
2023-10-12T20:46:20.870Z,4.75
2023-10-12T20:49:24.124Z,5.30
2023-10-12T20:52:27.039Z,4.63
2023-10-12T20:55:36.575Z,4.55
2023-10-12T20:58:48.488Z,4.40
2023-10-12T21:02:03.081Z,4.72
2023-10-12T21:05:10.114Z,5.72
2023-10-12T21:11:24.730Z,5.45
2023-10-12T21:14:35.411Z,4.90
2023-10-12T21:17:41.581Z,5.57
2023-10-12T21:21:07.713Z,5.57
2023-10-12T21:24:20.275Z,5.53
2023-10-12T21:27:38.302Z,4.53
2023-10-12T21:30:49.918Z,5.25
2023-10-12T21:34:02.641Z,5.68
2023-10-12T21:37:09.181Z,5.93
2023-10-12T21:43:38.924Z,5.83
2023-10-12T21:46:51.977Z,5.80
2023-10-12T21:49:58.286Z,6.03
2023-10-12T21:53:07.284Z,4.57
2023-10-12T21:56:10.687Z,5.93
2023-10-12T21:59:24.496Z,5.97
2023-10-12T22:02:35.137Z,6.03
2023-10-12T22:05:41.494Z,7.60
2023-10-12T22:08:54.922Z,6.10
2023-10-12T22:12:07.075Z,7.22
2023-10-12T22:15:20.853Z,5.90
2023-10-12T22:18:34.326Z,7.10
2023-10-12T22:21:40.397Z,3.70
2023-10-12T22:24:43.701Z,3.37
2023-10-12T22:27:50.535Z,3.95
2023-10-12T22:34:12.426Z,3.10
2023-10-12T22:37:15.505Z,3.25
2023-10-12T22:40:21.494Z,3.85
2023-10-12T22:43:24.390Z,3.37
2023-10-12T22:46:29.753Z,3.08
2023-10-12T22:49:41.874Z,4.10
2023-10-12T22:52:56.302Z,6.07
2023-10-12T22:56:10.967Z,5.93
2023-10-12T22:59:16.754Z,5.72
2023-10-12T23:02:19.687Z,5.55
2023-10-12T23:05:27.777Z,5.70
2023-10-12T23:08:37.804Z,4.55
2023-10-12T23:11:40.798Z,4.03
2023-10-12T23:14:46.263Z,3.53
2023-10-12T23:18:04.495Z,3.17
2023-10-12T23:21:26.926Z,4.38
2023-10-12T23:24:39.392Z,3.45
2023-10-12T23:27:51.953Z,4.47
2023-10-12T23:31:17.222Z,3.30
2023-10-12T23:34:49.482Z,3.70
2023-10-12T23:38:12.825Z,4.85
2023-10-12T23:41:15.571Z,3.85
2023-10-12T23:44:43.254Z,4.10
2023-10-12T23:51:00.417Z,3.17
2023-10-12T23:54:20.016Z,3.45
2023-10-12T23:57:25.832Z,3.30
